Highland, Michigan
Current Conditions -  °F | °C
As of 9:26 AM on Saturday 22 Nov 2014 (Local Time) from KPTK Reporting Station
Haze Haze  
Wind Chill: 23°   Ceiling: 800
Heat Index: 32°   Visibility: 5mi
Dew Point: 29°   Wind: 12mph
Humidity: 88%   Direction: 210°SSW
Pressure: 30.05"   Gusts: NA
Location:  42.63°N, 83.61°W
Report Text: KPTK 221426Z 21010KT 5SM BR OVC008 00/M02 A3005 RMK AO2 FZDZE25 CIG 006V011 P0000 I1000 T00001017
Loading
Personal Weather Stations






























Interactive Weather Map New forecast layout! Learn more

10-Day Weather Forecast

Advertisements
Track Severe Weather on mobile